Time;durP1;ratioP1;P1;durP2;ratioP2;P2;SDS_P1;SDS_P2;PMS_P1;PMS_P2;Temp;Humidity;BMP_temperature;BMP_pressure;BME280_temperature;BME280_humidity;BME280_pressure;Samples;Min_cycle;Max_cycle;Signal;HPM_P1;HPM_P2
2022/04/28 00:01:08;;;;;;;;;;;6.10;99.90;;;;;;4993814;28;20487;-79
2022/04/28 00:03:33;;;;;;;;;;;6.00;98.90;;;;;;4977281;28;19921;-78
2022/04/28 00:05:59;;;;;;;;;;;5.90;99.90;;;;;;5004329;28;19921;-78
2022/04/28 00:08:25;;;;;;;;;;;5.90;99.90;;;;;;5010464;28;19926;-78
2022/04/28 00:10:50;;;;;;;;;;;5.80;99.90;;;;;;5012245;28;19925;-78
2022/04/28 00:13:17;;;;;;;;;;;5.80;99.90;;;;;;5010811;28;19929;-78
2022/04/28 00:15:43;;;;;;;;;;;5.90;99.90;;;;;;5006489;28;19977;-78
2022/04/28 00:18:09;;;;;;;;;;;5.80;99.90;;;;;;4994121;28;19976;-78
2022/04/28 00:20:34;;;;;;;;;;;5.90;99.90;;;;;;5010423;28;19926;-78
2022/04/28 00:23:00;;;;;;;;;;;5.80;99.90;;;;;;5011061;28;19922;-78
2022/04/28 00:25:25;;;;;;;;;;;5.80;99.90;;;;;;5011144;28;19929;-78
2022/04/28 00:27:51;;;;;;;;;;;5.80;99.90;;;;;;5009832;28;19929;-78
2022/04/28 00:30:17;;;;;;;;;;;5.70;99.90;;;;;;5000444;28;20376;-78
2022/04/28 00:32:42;;;;;;;;;;;5.70;99.90;;;;;;4998721;28;19921;-77
2022/04/28 00:35:08;;;;;;;;;;;5.60;99.90;;;;;;4994791;28;19922;-78
2022/04/28 00:37:34;;;;;;;;;;;5.60;99.90;;;;;;4998328;28;19972;-78
2022/04/28 00:40:01;;;;;;;;;;;5.60;99.90;;;;;;5012233;28;19925;-77
2022/04/28 00:42:27;;;;;;;;;;;5.70;99.90;;;;;;4997930;28;20379;-77
2022/04/28 00:44:53;;;;;;;;;;;5.50;99.90;;;;;;4991288;28;19928;-78
2022/04/28 00:47:18;;;;;;;;;;;5.50;99.90;;;;;;4991873;28;20021;-78
2022/04/28 00:52:29;;;;;;;;;;;5.30;99.90;;;;;;4990557;28;19922;-78
2022/04/28 00:54:57;;;;;;;;;;;5.20;99.90;;;;;;4990819;28;19921;-78
2022/04/28 00:57:23;;;;;;;;;;;5.10;99.90;;;;;;4998586;28;19925;-75
2022/04/28 00:59:50;;;;;;;;;;;5.10;99.90;;;;;;5007859;28;19936;-78
2022/04/28 01:02:18;;;;;;;;;;;5.00;99.90;;;;;;4992332;28;20360;-78
2022/04/28 01:04:44;;;;;;;;;;;5.50;99.90;;;;;;5006749;28;19933;-78
2022/04/28 01:07:10;;;;;;;;;;;5.00;99.90;;;;;;4984994;28;20008;-77
2022/04/28 01:09:38;;;;;;;;;;;4.80;99.90;;;;;;5010465;28;20030;-78
2022/04/28 01:12:14;;;;;;;;;;;4.80;99.90;;;;;;5002859;28;19992;-78
2022/04/28 01:14:41;;;;;;;;;;;4.70;99.90;;;;;;4990390;28;19936;-78
2022/04/28 01:17:06;;;;;;;;;;;4.70;99.90;;;;;;4991463;28;20287;-77
2022/04/28 01:19:32;;;;;;;;;;;4.70;99.90;;;;;;4991063;28;19944;-78
2022/04/28 01:21:57;;;;;;;;;;;4.90;99.90;;;;;;4974817;28;19969;-78
2022/04/28 01:24:23;;;;;;;;;;;4.60;99.90;;;;;;4991550;28;20286;-76
2022/04/28 01:26:51;;;;;;;;;;;4.50;99.90;;;;;;4991348;28;20472;-78
2022/04/28 01:29:17;;;;;;;;;;;4.50;99.90;;;;;;4990799;28;19926;-77
2022/04/28 01:31:42;;;;;;;;;;;4.50;99.90;;;;;;4990049;28;19972;-78
2022/04/28 01:34:08;;;;;;;;;;;4.40;99.90;;;;;;4992109;28;20439;-78
2022/04/28 01:36:33;;;;;;;;;;;4.40;99.90;;;;;;4989365;28;19926;-78
2022/04/28 01:38:59;;;;;;;;;;;4.60;99.90;;;;;;4989958;28;19971;-78
2022/04/28 01:41:24;;;;;;;;;;;4.30;99.90;;;;;;4986239;28;20704;-76
2022/04/28 01:43:51;;;;;;;;;;;4.30;99.90;;;;;;4989105;28;19929;-77
2022/04/28 01:46:16;;;;;;;;;;;4.30;99.90;;;;;;4990604;28;20377;-77
2022/04/28 01:48:42;;;;;;;;;;;4.50;99.90;;;;;;4990117;28;20020;-78
2022/04/28 01:56:36;;;;;;;;;;;4.10;99.90;;;;;;5009142;28;19960;-78
2022/04/28 01:59:01;;;;;;;;;;;4.20;99.90;;;;;;4996658;28;20399;-78
2022/04/28 02:01:27;;;;;;;;;;;4.30;99.90;;;;;;4991302;28;19932;-75
2022/04/28 02:03:52;;;;;;;;;;;4.00;99.90;;;;;;4990100;28;19926;-78
2022/04/28 02:06:18;;;;;;;;;;;4.10;99.90;;;;;;4993226;28;19925;-77
2022/04/28 02:08:45;;;;;;;;;;;4.10;99.90;;;;;;5009226;28;19921;-78
2022/04/28 02:11:10;;;;;;;;;;;4.00;99.90;;;;;;5009102;28;19975;-78
2022/04/28 02:13:36;;;;;;;;;;;4.00;99.90;;;;;;4992759;28;19925;-77
2022/04/28 02:16:02;;;;;;;;;;;4.10;99.90;;;;;;5002468;28;19933;-78
2022/04/28 02:18:27;;;;;;;;;;;4.00;99.90;;;;;;4991743;28;20039;-78
2022/04/28 02:20:53;;;;;;;;;;;4.70;99.90;;;;;;4994624;28;20398;-77
2022/04/28 02:23:18;;;;;;;;;;;4.00;99.90;;;;;;5009731;28;19922;-78
2022/04/28 02:25:44;;;;;;;;;;;4.60;99.90;;;;;;5009633;28;20302;-78
2022/04/28 02:28:09;;;;;;;;;;;4.60;99.90;;;;;;5010474;28;20385;-77
2022/04/28 02:30:35;;;;;;;;;;;4.00;99.90;;;;;;5010912;28;19925;-78
2022/04/28 02:33:10;;;;;;;;;;;3.90;99.90;;;;;;5013365;28;19951;-78
2022/04/28 02:35:39;;;;;;;;;;;3.90;99.90;;;;;;5012619;28;19925;-78
2022/04/28 02:38:05;;;;;;;;;;;3.80;99.90;;;;;;5002798;28;19937;-78
2022/04/28 02:40:30;;;;;;;;;;;3.70;99.90;;;;;;4992969;28;19926;-76
2022/04/28 02:42:56;;;;;;;;;;;3.70;99.90;;;;;;5008941;28;20018;-78
2022/04/28 02:45:22;;;;;;;;;;;3.70;99.90;;;;;;5014702;28;20347;-78
2022/04/28 02:47:48;;;;;;;;;;;3.80;99.90;;;;;;5008789;28;19921;-77
2022/04/28 02:50:13;;;;;;;;;;;3.70;99.90;;;;;;5005030;28;19929;-78
2022/04/28 02:52:40;;;;;;;;;;;3.90;99.90;;;;;;4992948;28;19925;-77
2022/04/28 02:55:06;;;;;;;;;;;3.60;99.90;;;;;;4977604;28;19961;-76
2022/04/28 02:57:32;;;;;;;;;;;3.60;99.90;;;;;;4992705;28;20703;-78
2022/04/28 02:59:58;;;;;;;;;;;3.60;99.90;;;;;;4994079;28;19968;-77
2022/04/28 03:02:23;;;;;;;;;;;3.60;99.90;;;;;;4993584;28;20034;-77
2022/04/28 03:04:49;;;;;;;;;;;3.60;99.90;;;;;;4992849;28;19922;-78
2022/04/28 03:12:44;;;;;;;;;;;3.40;99.90;;;;;;5008099;28;19921;-78
2022/04/28 03:15:10;;;;;;;;;;;3.30;99.90;;;;;;4977158;28;20434;-77
2022/04/28 03:17:36;;;;;;;;;;;3.30;99.90;;;;;;4994013;28;20012;-76
2022/04/28 03:20:02;;;;;;;;;;;3.40;99.90;;;;;;4993486;28;19921;-78
2022/04/28 03:22:29;;;;;;;;;;;3.20;99.90;;;;;;4993897;28;19922;-77
2022/04/28 03:24:54;;;;;;;;;;;3.20;99.90;;;;;;4992677;28;19929;-78
2022/04/28 03:27:20;;;;;;;;;;;3.20;99.90;;;;;;4996927;28;19932;-78
2022/04/28 03:29:45;;;;;;;;;;;3.00;99.90;;;;;;4992398;28;19968;-78
2022/04/28 03:32:11;;;;;;;;;;;3.00;99.90;;;;;;4976601;28;19922;-78
2022/04/28 03:34:36;;;;;;;;;;;3.60;99.90;;;;;;5005224;28;20400;-76
2022/04/28 03:37:02;;;;;;;;;;;3.10;99.90;;;;;;5000016;28;19925;-78
2022/04/28 03:39:29;;;;;;;;;;;3.00;99.90;;;;;;4999482;28;19931;-79
2022/04/28 03:41:54;;;;;;;;;;;2.90;99.90;;;;;;5009840;28;20371;-77
2022/04/28 03:44:20;;;;;;;;;;;3.30;99.90;;;;;;4995601;28;19925;-77
2022/04/28 03:46:45;;;;;;;;;;;2.90;99.90;;;;;;5013039;28;19925;-78
2022/04/28 03:49:11;;;;;;;;;;;3.80;99.90;;;;;;5009902;28;19968;-77
2022/04/28 03:51:37;;;;;;;;;;;3.30;99.90;;;;;;4992142;28;19930;-77
2022/04/28 03:54:05;;;;;;;;;;;2.90;99.90;;;;;;4993619;28;20017;-77
2022/04/28 03:56:31;;;;;;;;;;;3.40;99.90;;;;;;4991785;28;20024;-78
2022/04/28 03:58:58;;;;;;;;;;;2.90;99.90;;;;;;4991158;28;19932;-78
2022/04/28 04:01:23;;;;;;;;;;;3.00;99.90;;;;;;4992514;28;20345;-77
2022/04/28 04:03:49;;;;;;;;;;;3.00;99.90;;;;;;4975865;28;20012;-78
2022/04/28 04:06:15;;;;;;;;;;;3.10;99.90;;;;;;4976652;28;20379;-78
2022/04/28 04:08:40;;;;;;;;;;;3.20;99.90;;;;;;4995325;28;19975;-76
2022/04/28 04:11:06;;;;;;;;;;;3.30;99.90;;;;;;5006461;28;19987;-78
2022/04/28 04:13:31;;;;;;;;;;;3.10;99.90;;;;;;5012417;28;19925;-77
2022/04/28 04:15:57;;;;;;;;;;;3.20;99.90;;;;;;5011289;28;19925;-78
2022/04/28 04:18:22;;;;;;;;;;;3.20;99.90;;;;;;4995747;28;19922;-78
2022/04/28 04:20:48;;;;;;;;;;;3.30;99.90;;;;;;5010698;28;19961;-78
2022/04/28 04:23:14;;;;;;;;;;;3.40;99.90;;;;;;4996715;28;19987;-78
2022/04/28 04:25:39;;;;;;;;;;;3.70;99.90;;;;;;4991489;28;19922;-78
2022/04/28 04:28:05;;;;;;;;;;;3.50;99.90;;;;;;4990995;28;19925;-78
2022/04/28 04:33:14;;;;;;;;;;;4.10;99.90;;;;;;4993099;28;19925;-77
2022/04/28 04:35:40;;;;;;;;;;;3.70;99.90;;;;;;5010987;28;20016;-78
2022/04/28 04:38:06;;;;;;;;;;;3.80;99.90;;;;;;4996682;28;19922;-77
2022/04/28 04:40:31;;;;;;;;;;;3.70;99.90;;;;;;4991031;28;19929;-78
2022/04/28 04:42:57;;;;;;;;;;;3.70;99.90;;;;;;4990633;28;19925;-78
2022/04/28 04:45:23;;;;;;;;;;;3.70;99.90;;;;;;4997928;28;19922;-78
2022/04/28 04:47:49;;;;;;;;;;;4.30;99.90;;;;;;5010859;28;19928;-77
2022/04/28 04:50:14;;;;;;;;;;;3.80;99.90;;;;;;5011812;28;20012;-78
2022/04/28 04:52:40;;;;;;;;;;;4.90;99.90;;;;;;5010401;28;19921;-77
2022/04/28 04:55:06;;;;;;;;;;;3.90;99.90;;;;;;5011648;28;20052;-75
2022/04/28 04:57:31;;;;;;;;;;;3.90;99.90;;;;;;4993832;28;19965;-77
2022/04/28 04:59:58;;;;;;;;;;;4.10;99.90;;;;;;5010561;28;20042;-78
2022/04/28 05:02:23;;;;;;;;;;;3.90;99.90;;;;;;5003543;28;19976;-77
2022/04/28 05:04:49;;;;;;;;;;;3.90;99.90;;;;;;5010150;28;19929;-77
2022/04/28 05:07:15;;;;;;;;;;;4.00;99.90;;;;;;5010540;28;20448;-77
2022/04/28 05:09:42;;;;;;;;;;;4.10;99.90;;;;;;5005406;28;20326;-78
2022/04/28 05:12:08;;;;;;;;;;;4.30;99.90;;;;;;4989458;28;19925;-76
2022/04/28 05:14:34;;;;;;;;;;;4.40;99.90;;;;;;4990811;28;19929;-77
2022/04/28 05:17:00;;;;;;;;;;;4.50;99.90;;;;;;4990795;28;19933;-77
2022/04/28 05:19:26;;;;;;;;;;;4.60;99.90;;;;;;4990750;28;19926;-77
2022/04/28 05:21:51;;;;;;;;;;;4.70;99.90;;;;;;4990455;28;19926;-77
2022/04/28 05:24:17;;;;;;;;;;;4.80;99.90;;;;;;4974888;28;19929;-78
2022/04/28 05:26:43;;;;;;;;;;;5.00;99.90;;;;;;4998868;28;19964;-78
2022/04/28 05:29:09;;;;;;;;;;;4.90;99.90;;;;;;4990394;28;20225;-77
2022/04/28 05:31:34;;;;;;;;;;;5.20;99.90;;;;;;4990786;28;19921;-77
2022/04/28 05:34:00;;;;;;;;;;;5.20;99.90;;;;;;4994975;28;19971;-78
2022/04/28 05:36:28;;;;;;;;;;;5.30;99.90;;;;;;5009821;28;19969;-78
2022/04/28 05:38:54;;;;;;;;;;;5.40;99.90;;;;;;5009496;28;20513;-77
2022/04/28 05:41:20;;;;;;;;;;;5.50;99.90;;;;;;5009689;28;19932;-78
2022/04/28 05:46:30;;;;;;;;;;;5.70;99.90;;;;;;5009991;28;19961;-77
2022/04/28 05:48:55;;;;;;;;;;;5.80;99.90;;;;;;5009442;28;20518;-78
2022/04/28 05:51:21;;;;;;;;;;;5.90;99.90;;;;;;4992114;28;19936;-78
2022/04/28 05:53:46;;;;;;;;;;;6.00;99.90;;;;;;4993783;28;20619;-78
2022/04/28 05:56:12;;;;;;;;;;;6.10;99.90;;;;;;4992006;28;19917;-78
2022/04/28 05:58:37;;;;;;;;;;;6.20;99.90;;;;;;5009377;28;19928;-78
2022/04/28 06:01:03;;;;;;;;;;;6.30;99.90;;;;;;5009317;28;19991;-78
2022/04/28 06:03:29;;;;;;;;;;;6.40;99.90;;;;;;5010407;28;19922;-78
2022/04/28 06:05:54;;;;;;;;;;;6.50;99.90;;;;;;5011501;28;19929;-76
2022/04/28 06:08:20;;;;;;;;;;;6.60;99.90;;;;;;5001299;28;19926;-77
2022/04/28 06:10:45;;;;;;;;;;;6.60;99.90;;;;;;4997953;28;19971;-78
2022/04/28 06:13:11;;;;;;;;;;;6.70;99.90;;;;;;4996089;28;19947;-78
2022/04/28 06:15:36;;;;;;;;;;;6.80;99.90;;;;;;5014138;28;19932;-76
2022/04/28 06:18:02;;;;;;;;;;;6.80;99.90;;;;;;5014589;28;20367;-78
2022/04/28 06:20:28;;;;;;;;;;;6.90;99.90;;;;;;5012890;28;19921;-78
2022/04/28 06:22:54;;;;;;;;;;;7.30;99.90;;;;;;5014912;28;19925;-76
2022/04/28 06:25:19;;;;;;;;;;;7.10;99.90;;;;;;5013905;28;19921;-78
2022/04/28 06:27:45;;;;;;;;;;;7.10;99.90;;;;;;5009713;28;19926;-75
2022/04/28 06:30:10;;;;;;;;;;;7.10;99.90;;;;;;5003783;28;19926;-78
2022/04/28 06:32:37;;;;;;;;;;;7.20;99.90;;;;;;4980716;28;20466;-77
2022/04/28 06:35:03;;;;;;;;;;;7.30;99.90;;;;;;5012638;28;19925;-78
2022/04/28 06:37:29;;;;;;;;;;;7.30;99.90;;;;;;5014323;28;20028;-78
2022/04/28 06:39:55;;;;;;;;;;;7.30;99.90;;;;;;5013002;28;20438;-78
2022/04/28 06:42:20;;;;;;;;;;;7.40;99.90;;;;;;5001468;28;19926;-78
2022/04/28 06:44:46;;;;;;;;;;;7.40;99.90;;;;;;4993913;28;19945;-77
2022/04/28 06:47:12;;;;;;;;;;;7.50;99.90;;;;;;4993339;28;19929;-77
2022/04/28 06:49:37;;;;;;;;;;;7.60;99.90;;;;;;4993384;28;19973;-78
2022/04/28 06:52:03;;;;;;;;;;;7.60;99.90;;;;;;4994567;28;19933;-77
2022/04/28 06:54:28;;;;;;;;;;;7.70;99.90;;;;;;5003778;28;20000;-78
2022/04/28 06:56:54;;;;;;;;;;;7.80;99.90;;;;;;4993229;28;20415;-77
2022/04/28 06:59:20;;;;;;;;;;;7.80;99.90;;;;;;4992684;28;20407;-77
2022/04/28 07:01:46;;;;;;;;;;;7.90;99.90;;;;;;5004157;28;19932;-78
2022/04/28 07:04:12;;;;;;;;;;;8.00;99.90;;;;;;4997231;28;19925;-78
2022/04/28 07:06:38;;;;;;;;;;;8.10;99.90;;;;;;5000990;28;19926;-78
2022/04/28 07:09:03;;;;;;;;;;;8.20;99.90;;;;;;4993943;28;20506;-78
2022/04/28 07:11:29;;;;;;;;;;;8.40;99.90;;;;;;4992184;28;20043;-78
2022/04/28 07:13:54;;;;;;;;;;;8.50;99.90;;;;;;5011430;28;19922;-77
2022/04/28 07:16:20;;;;;;;;;;;8.60;99.90;;;;;;4992422;28;19922;-78
2022/04/28 07:18:45;;;;;;;;;;;8.70;99.90;;;;;;5001226;28;20371;-78
2022/04/28 07:21:11;;;;;;;;;;;8.80;99.90;;;;;;4992239;28;19943;-78
2022/04/28 07:23:37;;;;;;;;;;;8.90;99.90;;;;;;4993290;28;19992;-78
2022/04/28 07:26:03;;;;;;;;;;;9.00;99.90;;;;;;4994650;28;19957;-76
2022/04/28 07:28:28;;;;;;;;;;;9.10;99.90;;;;;;4984818;28;20047;-78
2022/04/28 07:30:54;;;;;;;;;;;9.20;99.90;;;;;;4992866;28;19936;-77
2022/04/28 07:33:19;;;;;;;;;;;9.30;99.90;;;;;;4976126;28;19921;-78
2022/04/28 07:35:45;;;;;;;;;;;9.40;99.90;;;;;;4992659;28;20015;-78
2022/04/28 07:38:11;;;;;;;;;;;9.50;99.90;;;;;;4994951;28;19922;-78
2022/04/28 07:40:36;;;;;;;;;;;9.70;99.90;;;;;;5005484;28;20271;-78
2022/04/28 07:43:03;;;;;;;;;;;9.90;99.90;;;;;;4989098;28;19922;-78
2022/04/28 07:45:28;;;;;;;;;;;10.00;99.90;;;;;;4995560;28;19922;-77
2022/04/28 07:47:54;;;;;;;;;;;9.90;99.90;;;;;;4999068;28;19933;-78
2022/04/28 07:50:20;;;;;;;;;;;9.90;99.90;;;;;;4990545;28;20362;-78
2022/04/28 07:52:46;;;;;;;;;;;9.90;99.90;;;;;;5010447;28;19964;-78
2022/04/28 07:55:12;;;;;;;;;;;9.80;99.90;;;;;;5010169;28;19988;-78
2022/04/28 07:57:37;;;;;;;;;;;9.80;99.90;;;;;;5006989;28;19925;-78
2022/04/28 08:00:04;;;;;;;;;;;9.80;99.90;;;;;;5010171;28;20026;-78
2022/04/28 08:02:31;;;;;;;;;;;9.80;99.90;;;;;;4977660;28;19922;-79
2022/04/28 08:04:57;;;;;;;;;;;9.90;99.90;;;;;;4995169;28;19933;-81
2022/04/28 08:07:23;;;;;;;;;;;10.00;99.90;;;;;;4991520;28;19922;-81
2022/04/28 08:09:48;;;;;;;;;;;10.10;99.90;;;;;;4996025;28;20386;-76
2022/04/28 08:12:14;;;;;;;;;;;10.50;99.90;;;;;;5020084;28;19922;-78
2022/04/28 08:14:40;;;;;;;;;;;10.50;99.90;;;;;;5029169;28;19983;-82
2022/04/28 08:17:06;;;;;;;;;;;10.60;99.90;;;;;;5007018;28;19928;-79
2022/04/28 08:19:32;;;;;;;;;;;10.60;99.90;;;;;;5005767;28;19922;-79
2022/04/28 08:21:58;;;;;;;;;;;10.60;99.90;;;;;;5002481;28;19921;-79
2022/04/28 08:24:23;;;;;;;;;;;10.60;99.90;;;;;;5011076;28;19949;-79
2022/04/28 08:26:49;;;;;;;;;;;10.60;99.90;;;;;;5011208;28;19921;-80
2022/04/28 08:29:15;;;;;;;;;;;10.70;99.90;;;;;;5007584;28;19936;-79
2022/04/28 08:31:44;;;;;;;;;;;10.70;99.90;;;;;;5007077;28;19925;-79
2022/04/28 08:34:17;;;;;;;;;;;10.70;99.90;;;;;;5011275;28;19932;-77
2022/04/28 08:36:43;;;;;;;;;;;10.80;99.90;;;;;;5010791;28;19936;-79
2022/04/28 08:39:09;;;;;;;;;;;10.90;99.90;;;;;;5009891;28;19965;-78
2022/04/28 08:41:42;;;;;;;;;;;10.90;99.90;;;;;;4987089;28;20417;-79
2022/04/28 08:44:11;;;;;;;;;;;10.90;99.90;;;;;;4994631;28;19925;-80
2022/04/28 08:46:52;;;;;;;;;;;11.00;99.90;;;;;;5011406;28;19925;-79
2022/04/28 08:49:18;;;;;;;;;;;11.00;99.90;;;;;;4980458;28;19925;-79
2022/04/28 08:51:44;;;;;;;;;;;11.00;99.90;;;;;;5004311;28;20276;-79
2022/04/28 08:54:10;;;;;;;;;;;11.10;99.90;;;;;;4984709;28;19921;-78
2022/04/28 08:56:36;;;;;;;;;;;11.20;99.90;;;;;;4990432;28;20390;-79
2022/04/28 08:59:02;;;;;;;;;;;11.20;99.90;;;;;;4991054;28;19921;-79
2022/04/28 09:01:28;;;;;;;;;;;11.30;99.90;;;;;;4990972;28;19933;-79
2022/04/28 09:03:55;;;;;;;;;;;11.40;99.90;;;;;;4994153;28;19932;-79
2022/04/28 09:06:22;;;;;;;;;;;11.50;99.90;;;;;;5004662;28;19926;-82
2022/04/28 09:08:49;;;;;;;;;;;11.60;99.90;;;;;;4990241;28;20495;-81
2022/04/28 09:11:18;;;;;;;;;;;11.70;99.90;;;;;;5002146;28;19933;-82
2022/04/28 09:16:32;;;;;;;;;;;12.10;99.90;;;;;;5007153;28;20521;-79
2022/04/28 09:18:58;;;;;;;;;;;12.20;99.90;;;;;;5006819;28;20005;-80
2022/04/28 09:21:24;;;;;;;;;;;12.20;99.90;;;;;;4998378;28;19925;-79
2022/04/28 09:23:50;;;;;;;;;;;12.20;99.90;;;;;;5010076;28;19921;-79
2022/04/28 09:26:15;;;;;;;;;;;12.30;99.90;;;;;;5009113;28;19932;-79
2022/04/28 09:28:41;;;;;;;;;;;12.40;99.90;;;;;;5010039;28;19922;-78
2022/04/28 09:31:08;;;;;;;;;;;12.50;99.90;;;;;;5003825;28;20016;-85
2022/04/28 09:33:36;;;;;;;;;;;12.50;99.90;;;;;;5004427;28;20019;-80
2022/04/28 09:36:03;;;;;;;;;;;12.50;99.90;;;;;;4988519;28;19925;-80
2022/04/28 09:38:29;;;;;;;;;;;12.40;99.90;;;;;;4989237;28;19937;-80
2022/04/28 09:43:39;;;;;;;;;;;12.50;99.90;;;;;;4988344;28;20378;-80
2022/04/28 09:46:07;;;;;;;;;;;12.60;99.90;;;;;;4997436;28;19925;-80
2022/04/28 09:48:33;;;;;;;;;;;12.60;99.90;;;;;;5009838;28;20063;-80
2022/04/28 09:51:03;;;;;;;;;;;12.70;99.90;;;;;;4993971;28;20348;-79
2022/04/28 09:53:33;;;;;;;;;;;12.70;99.90;;;;;;4989920;28;19929;-79
2022/04/28 09:56:00;;;;;;;;;;;12.80;99.90;;;;;;5009183;28;19932;-79
2022/04/28 09:58:27;;;;;;;;;;;12.80;99.90;;;;;;4989191;28;19922;-79
2022/04/28 10:00:53;;;;;;;;;;;13.00;99.90;;;;;;4986698;28;19937;-79
2022/04/28 10:03:19;;;;;;;;;;;13.00;99.90;;;;;;4989505;28;19926;-80
2022/04/28 10:05:45;;;;;;;;;;;13.10;99.90;;;;;;5006306;28;20294;-79
2022/04/28 10:08:11;;;;;;;;;;;13.10;99.90;;;;;;5006349;28;20080;-79
2022/04/28 10:10:37;;;;;;;;;;;13.20;99.90;;;;;;4998957;28;20478;-79
2022/04/28 10:13:03;;;;;;;;;;;13.30;99.90;;;;;;5007628;28;19995;-80
2022/04/28 10:15:32;;;;;;;;;;;13.50;99.90;;;;;;4992276;28;19932;-79
2022/04/28 10:17:59;;;;;;;;;;;13.80;99.90;;;;;;5009069;28;19925;-79
2022/04/28 10:20:29;;;;;;;;;;;14.20;99.90;;;;;;4991836;28;20710;-79
2022/04/28 10:22:56;;;;;;;;;;;14.40;99.90;;;;;;5009379;28;19929;-79
2022/04/28 10:33:48;;;;;;;;;;;15.10;98.10;;;;;;4998935;28;19925;-79
2022/04/28 10:36:17;;;;;;;;;;;15.10;96.70;;;;;;4983757;28;20008;-79
2022/04/28 10:39:02;;;;;;;;;;;15.10;96.70;;;;;;4982791;28;19926;-79
2022/04/28 10:41:29;;;;;;;;;;;15.10;97.00;;;;;;5006534;28;19964;-78
2022/04/28 10:43:56;;;;;;;;;;;15.10;95.90;;;;;;5012017;28;19929;-79
2022/04/28 10:46:28;;;;;;;;;;;15.00;93.70;;;;;;5030193;28;19921;-79
2022/04/28 10:48:54;;;;;;;;;;;14.80;95.50;;;;;;4989619;28;19930;-79
2022/04/28 10:51:25;;;;;;;;;;;14.70;94.80;;;;;;4991612;28;19972;-79
2022/04/28 10:53:58;;;;;;;;;;;14.60;95.40;;;;;;5005503;28;19932;-79
2022/04/28 10:56:52;;;;;;;;;;;14.50;96.00;;;;;;5002964;28;19929;-79
2022/04/28 10:59:39;;;;;;;;;;;14.50;95.80;;;;;;4996701;28;19922;-79
2022/04/28 11:02:11;;;;;;;;;;;14.60;93.50;;;;;;5003735;28;19921;-79
2022/04/28 11:04:38;;;;;;;;;;;14.80;94.20;;;;;;5006458;28;19945;-79
2022/04/28 11:07:12;;;;;;;;;;;14.80;93.90;;;;;;4993381;28;19921;-79
2022/04/28 11:09:49;;;;;;;;;;;14.80;94.50;;;;;;5012496;28;19926;-79
2022/04/28 11:12:18;;;;;;;;;;;14.90;94.50;;;;;;5011762;28;19931;-79
2022/04/28 11:14:43;;;;;;;;;;;15.00;92.80;;;;;;5000397;28;19922;-79
2022/04/28 11:17:10;;;;;;;;;;;15.10;93.10;;;;;;4977522;28;19922;-79
2022/04/28 11:19:36;;;;;;;;;;;15.00;92.60;;;;;;4992457;28;19926;-79
2022/04/28 11:22:01;;;;;;;;;;;15.10;92.90;;;;;;5004759;28;19922;-80
2022/04/28 11:24:27;;;;;;;;;;;15.20;93.30;;;;;;5002992;28;20318;-79
2022/04/28 11:26:54;;;;;;;;;;;15.10;91.10;;;;;;5011828;28;19967;-79
2022/04/28 11:29:22;;;;;;;;;;;14.90;91.60;;;;;;5008786;28;19932;-79
2022/04/28 11:31:49;;;;;;;;;;;14.90;90.90;;;;;;5001493;28;19995;-79
2022/04/28 11:34:15;;;;;;;;;;;15.00;94.00;;;;;;5000240;28;19929;-79
2022/04/28 11:36:41;;;;;;;;;;;15.50;93.10;;;;;;4989265;28;19925;-79
2022/04/28 11:39:10;;;;;;;;;;;15.80;91.50;;;;;;4990914;28;19930;-86
2022/04/28 11:41:40;;;;;;;;;;;16.00;91.20;;;;;;4996229;28;20038;-81
2022/04/28 11:44:13;;;;;;;;;;;16.20;90.60;;;;;;5002875;28;20493;-79
2022/04/28 11:46:42;;;;;;;;;;;16.30;90.00;;;;;;5000988;28;20742;-81
2022/04/28 11:49:08;;;;;;;;;;;16.30;88.10;;;;;;5001440;28;20314;-81
2022/04/28 11:51:34;;;;;;;;;;;16.20;88.10;;;;;;5002884;28;19944;-81
2022/04/28 11:54:01;;;;;;;;;;;16.30;89.10;;;;;;4995745;28;19922;-79
2022/04/28 11:56:29;;;;;;;;;;;16.40;88.80;;;;;;4994297;28;19921;-79
2022/04/28 11:58:55;;;;;;;;;;;16.70;88.20;;;;;;5005517;28;20410;-85
2022/04/28 12:01:21;;;;;;;;;;;16.90;87.30;;;;;;4995626;28;19922;-86
2022/04/28 12:03:47;;;;;;;;;;;17.20;85.40;;;;;;4985332;28;19922;-85
2022/04/28 12:06:14;;;;;;;;;;;17.50;85.40;;;;;;5003424;28;19944;-85
2022/04/28 12:08:40;;;;;;;;;;;17.60;82.30;;;;;;5000635;28;19932;-85
2022/04/28 12:19:22;;;;;;;;;;;17.30;77.10;;;;;;5007902;28;19925;-78
2022/04/28 12:21:48;;;;;;;;;;;17.30;80.00;;;;;;5005201;28;19925;-78
2022/04/28 12:24:21;;;;;;;;;;;17.60;81.10;;;;;;5008180;28;19972;-86
2022/04/28 12:26:47;;;;;;;;;;;17.90;79.60;;;;;;4999486;28;19968;-81
2022/04/28 12:29:14;;;;;;;;;;;18.10;81.40;;;;;;4998917;28;20363;-84
2022/04/28 12:31:40;;;;;;;;;;;18.30;81.00;;;;;;4991268;28;19921;-82
2022/04/28 12:34:13;;;;;;;;;;;18.50;81.70;;;;;;4992049;28;19929;-82
2022/04/28 12:36:46;;;;;;;;;;;18.40;79.30;;;;;;4990792;28;19925;-82
2022/04/28 12:39:11;;;;;;;;;;;18.10;77.70;;;;;;4993023;28;19925;-82
2022/04/28 12:41:41;;;;;;;;;;;17.80;77.60;;;;;;4990847;28;20016;-82
2022/04/28 12:44:06;;;;;;;;;;;17.80;76.50;;;;;;4974688;28;19922;-82
2022/04/28 12:46:32;;;;;;;;;;;18.00;74.20;;;;;;4994128;28;20286;-82
2022/04/28 12:49:01;;;;;;;;;;;18.00;73.80;;;;;;5011485;28;19925;-82
2022/04/28 12:51:27;;;;;;;;;;;17.80;76.30;;;;;;4995903;28;20390;-82
2022/04/28 12:53:53;;;;;;;;;;;17.60;74.80;;;;;;4996790;28;20370;-82
2022/04/28 12:56:27;;;;;;;;;;;17.30;71.70;;;;;;4977448;28;19932;-82
2022/04/28 12:59:00;;;;;;;;;;;17.00;73.70;;;;;;4990517;28;19928;-82
2022/04/28 13:01:27;;;;;;;;;;;17.10;75.60;;;;;;4991550;28;19925;-82
2022/04/28 13:03:54;;;;;;;;;;;17.70;74.10;;;;;;4990861;28;20004;-84
2022/04/28 13:06:20;;;;;;;;;;;18.20;75.00;;;;;;4990966;28;19993;-81
2022/04/28 13:08:46;;;;;;;;;;;18.30;74.50;;;;;;4990462;28;19925;-79
2022/04/28 13:11:12;;;;;;;;;;;18.20;72.70;;;;;;4985075;28;19944;-79
2022/04/28 13:13:38;;;;;;;;;;;18.40;72.30;;;;;;5006212;28;19927;-78
2022/04/28 13:16:04;;;;;;;;;;;18.90;75.60;;;;;;4959226;28;20033;-78
2022/04/28 13:18:29;;;;;;;;;;;19.60;72.90;;;;;;4975249;28;19925;-81
2022/04/28 13:20:55;;;;;;;;;;;19.70;72.60;;;;;;4974344;28;19926;-79
2022/04/28 13:23:20;;;;;;;;;;;19.30;68.30;;;;;;5007450;28;19921;-79
2022/04/28 13:25:46;;;;;;;;;;;18.80;69.10;;;;;;5005907;28;19944;-82
2022/04/28 13:28:11;;;;;;;;;;;18.90;71.30;;;;;;4987947;28;19953;-82
2022/04/28 13:30:38;;;;;;;;;;;19.20;69.80;;;;;;4990772;28;19937;-81
2022/04/28 13:33:04;;;;;;;;;;;19.50;69.60;;;;;;4993669;28;19940;-80
2022/04/28 13:35:30;;;;;;;;;;;19.50;68.20;;;;;;4993718;28;19994;-80
2022/04/28 13:37:55;;;;;;;;;;;19.20;67.70;;;;;;4993198;28;20398;-80
2022/04/28 13:40:21;;;;;;;;;;;19.30;69.60;;;;;;5009411;28;20386;-80
2022/04/28 13:42:46;;;;;;;;;;;19.90;69.60;;;;;;4992762;28;19971;-80
2022/04/28 13:45:12;;;;;;;;;;;20.20;65.00;;;;;;5010443;28;19921;-80
2022/04/28 13:47:38;;;;;;;;;;;20.20;66.40;;;;;;4993624;28;19932;-80
2022/04/28 13:50:03;;;;;;;;;;;20.10;64.00;;;;;;4993592;28;19921;-79
2022/04/28 13:52:29;;;;;;;;;;;19.80;63.10;;;;;;4992202;28;19921;-80
2022/04/28 13:54:54;;;;;;;;;;;19.80;64.90;;;;;;4973268;28;20168;-80
2022/04/28 13:57:20;;;;;;;;;;;20.10;65.00;;;;;;5009049;28;19932;-80
2022/04/28 13:59:46;;;;;;;;;;;20.60;63.10;;;;;;5008855;28;20143;-80
2022/04/28 14:02:11;;;;;;;;;;;21.10;63.30;;;;;;4992634;28;19993;-81
2022/04/28 14:04:37;;;;;;;;;;;21.70;62.50;;;;;;4992270;28;20353;-81
2022/04/28 14:07:02;;;;;;;;;;;22.40;62.00;;;;;;5005989;28;19921;-81
2022/04/28 14:09:28;;;;;;;;;;;22.70;59.90;;;;;;5009035;28;19935;-80
2022/04/28 14:11:55;;;;;;;;;;;22.30;57.40;;;;;;4991178;28;19930;-80
2022/04/28 14:14:24;;;;;;;;;;;21.70;59.70;;;;;;5005312;28;19975;-80
2022/04/28 14:16:49;;;;;;;;;;;21.60;59.20;;;;;;4998974;28;19925;-80
2022/04/28 14:19:16;;;;;;;;;;;22.00;58.00;;;;;;5009261;28;20277;-81
2022/04/28 14:21:42;;;;;;;;;;;22.60;57.20;;;;;;5009454;28;19921;-82
2022/04/28 14:24:08;;;;;;;;;;;23.20;58.10;;;;;;5009720;28;20354;-81
2022/04/28 14:26:35;;;;;;;;;;;23.60;54.70;;;;;;4994328;28;19928;-82
2022/04/28 14:29:01;;;;;;;;;;;23.80;55.60;;;;;;5012247;28;20184;-81
2022/04/28 14:31:26;;;;;;;;;;;23.60;53.90;;;;;;5013140;28;19976;-81
2022/04/28 14:33:52;;;;;;;;;;;23.80;52.50;;;;;;5005950;28;19968;-81
2022/04/28 14:36:18;;;;;;;;;;;24.00;54.50;;;;;;5010613;28;19944;-81
2022/04/28 14:38:43;;;;;;;;;;;24.10;52.60;;;;;;5011813;28;19925;-81
2022/04/28 14:41:09;;;;;;;;;;;23.90;52.50;;;;;;5010986;28;20433;-81
2022/04/28 14:43:34;;;;;;;;;;;23.80;51.80;;;;;;5011366;28;19952;-81
2022/04/28 14:46:00;;;;;;;;;;;23.90;52.70;;;;;;5011568;28;19964;-81
2022/04/28 14:48:26;;;;;;;;;;;24.20;52.70;;;;;;4995754;28;19925;-81
2022/04/28 14:53:36;;;;;;;;;;;25.00;51.30;;;;;;5017518;28;20354;-81
2022/04/28 14:56:01;;;;;;;;;;;25.20;50.70;;;;;;4994177;28;20009;-81
2022/04/28 14:58:27;;;;;;;;;;;25.40;49.10;;;;;;4992778;28;19933;-81
2022/04/28 15:00:53;;;;;;;;;;;25.60;49.50;;;;;;5010839;28;20343;-81
2022/04/28 15:03:19;;;;;;;;;;;25.60;49.10;;;;;;5011762;28;19922;-81